createdAt,value
2023-04-26T00:01:27.515Z,100621.75
2023-04-26T00:03:54.339Z,100621.56
2023-04-26T00:06:20.817Z,100618.63
2023-04-26T00:08:47.213Z,100620.88
2023-04-26T00:11:13.591Z,100620.25
2023-04-26T00:13:40.036Z,100619.25
2023-04-26T00:16:06.783Z,100613.75
2023-04-26T00:18:33.176Z,100623.13
2023-04-26T00:20:59.591Z,100627.22
2023-04-26T00:23:26.358Z,100629.63
2023-04-26T00:25:52.857Z,100621.38
2023-04-26T00:28:19.313Z,100629.13
2023-04-26T00:30:48.758Z,100629.13
2023-04-26T00:33:15.294Z,100620.69
2023-04-26T00:35:41.669Z,100625.38
2023-04-26T00:38:08.090Z,100620.88
2023-04-26T00:40:35.409Z,100625.19
2023-04-26T00:43:02.652Z,100612.75
2023-04-26T00:45:29.097Z,100622.78
2023-04-26T00:47:59.160Z,100619.69
2023-04-26T00:50:26.098Z,100613.88
2023-04-26T00:52:52.462Z,100619.88
2023-04-26T00:55:19.033Z,100627.84
2023-04-26T00:57:45.788Z,100627.03
2023-04-26T01:00:12.405Z,100624.28
2023-04-26T01:02:39.033Z,100627.03
2023-04-26T01:05:06.828Z,100617.94
2023-04-26T01:07:33.504Z,100624.56
2023-04-26T01:10:04.894Z,100623.56
2023-04-26T01:12:32.221Z,100621.34
2023-04-26T01:14:59.228Z,100619.22
2023-04-26T01:17:28.467Z,100629.88
2023-04-26T01:19:56.872Z,100633.50
2023-04-26T01:22:23.291Z,100632.38
2023-04-26T01:24:50.420Z,100631.28
2023-04-26T01:27:17.069Z,100625.00
2023-04-26T01:29:43.548Z,100628.28
2023-04-26T01:32:09.937Z,100616.47
2023-04-26T01:34:37.275Z,100615.00
2023-04-26T01:37:03.751Z,100618.88
2023-04-26T01:39:30.273Z,100612.69
2023-04-26T01:41:58.418Z,100611.41
2023-04-26T01:44:24.800Z,100612.19
2023-04-26T01:46:51.808Z,100611.06
2023-04-26T01:49:18.276Z,100609.13
2023-04-26T01:51:46.798Z,100613.53
2023-04-26T01:54:13.185Z,100611.06
2023-04-26T01:56:39.823Z,100617.38
2023-04-26T01:59:06.351Z,100611.75
2023-04-26T02:01:33.028Z,100614.19
2023-04-26T02:03:59.532Z,100613.38
2023-04-26T02:06:26.499Z,100620.13
2023-04-26T02:08:53.616Z,100621.63
2023-04-26T02:11:21.160Z,100625.00
2023-04-26T02:13:47.667Z,100617.88
2023-04-26T02:16:16.446Z,100624.63
2023-04-26T02:18:42.904Z,100617.53
2023-04-26T02:21:10.589Z,100626.88
2023-04-26T02:23:36.981Z,100621.38
2023-04-26T02:26:03.589Z,100617.41
2023-04-26T02:28:30.221Z,100612.84
2023-04-26T02:30:56.802Z,100625.41
2023-04-26T02:33:23.850Z,100630.94
2023-04-26T02:35:50.362Z,100625.63
2023-04-26T02:38:17.352Z,100630.03
2023-04-26T02:40:43.766Z,100628.38
2023-04-26T02:43:11.900Z,100628.09
2023-04-26T02:45:42.885Z,100628.38
2023-04-26T02:48:11.165Z,100621.38
2023-04-26T02:50:38.161Z,100630.28
2023-04-26T02:53:05.454Z,100630.75
2023-04-26T02:55:32.235Z,100622.69
2023-04-26T02:57:58.757Z,100637.25
2023-04-26T03:00:25.506Z,100629.75
2023-04-26T03:02:52.440Z,100628.94
2023-04-26T03:05:19.948Z,100633.03
2023-04-26T03:07:46.406Z,100634.31
2023-04-26T03:10:12.960Z,100632.38
2023-04-26T03:12:40.130Z,100627.06
2023-04-26T03:15:06.933Z,100635.00
2023-04-26T03:17:33.479Z,100634.03
2023-04-26T03:20:02.334Z,100630.75
2023-04-26T03:22:29.234Z,100630.56
2023-04-26T03:24:55.798Z,100633.66
2023-04-26T03:27:22.356Z,100627.94
2023-04-26T03:29:48.783Z,100633.84
2023-04-26T03:32:15.346Z,100628.63
2023-04-26T03:34:41.934Z,100640.53
2023-04-26T03:37:08.407Z,100635.84
2023-04-26T03:39:35.683Z,100635.84
2023-04-26T03:42:03.949Z,100638.09
2023-04-26T03:44:31.304Z,100644.66
2023-04-26T03:46:57.841Z,100640.75
2023-04-26T03:49:24.299Z,100645.03
2023-04-26T03:51:50.723Z,100644.22
2023-04-26T03:54:17.130Z,100636.59
2023-04-26T03:56:43.590Z,100633.84
2023-04-26T03:59:11.713Z,100633.03
2023-04-26T04:01:38.623Z,100634.03
2023-04-26T04:04:05.282Z,100630.47
2023-04-26T04:06:32.751Z,100633.22
2023-04-26T04:09:00.590Z,100633.03
2023-04-26T04:11:27.099Z,100631.88
2023-04-26T04:13:53.509Z,100627.53
2023-04-26T04:16:19.994Z,100634.81
2023-04-26T04:18:46.954Z,100634.22
2023-04-26T04:21:13.797Z,100639.09
2023-04-26T04:23:40.287Z,100634.03
2023-04-26T04:26:09.831Z,100629.63
2023-04-26T04:28:38.009Z,100631.38
2023-04-26T04:31:04.428Z,100639.00
2023-04-26T04:33:30.997Z,100641.34
2023-04-26T04:36:00.412Z,100639.94
2023-04-26T04:38:26.958Z,100646.63
2023-04-26T04:40:53.539Z,100644.50
2023-04-26T04:43:20.104Z,100649.53
2023-04-26T04:45:46.520Z,100654.19
2023-04-26T04:48:13.027Z,100660.53
2023-04-26T04:50:39.680Z,100656.50
2023-04-26T04:53:06.158Z,100664.56
2023-04-26T04:55:33.696Z,100661.16
2023-04-26T04:58:01.653Z,100663.97
2023-04-26T05:00:31.053Z,100668.66
2023-04-26T05:03:03.756Z,100671.59
2023-04-26T05:05:31.624Z,100664.97
2023-04-26T05:07:58.187Z,100674.75
2023-04-26T05:10:26.250Z,100671.53
2023-04-26T05:12:53.468Z,100682.00
2023-04-26T05:15:19.983Z,100686.38
2023-04-26T05:17:46.504Z,100683.53
2023-04-26T05:20:18.298Z,100683.63
2023-04-26T05:22:45.406Z,100690.13
2023-04-26T05:25:13.406Z,100689.66
2023-04-26T05:27:40.742Z,100690.44
2023-04-26T05:30:15.062Z,100702.25
2023-04-26T05:32:47.209Z,100699.03
2023-04-26T05:35:17.720Z,100692.78
2023-04-26T05:37:44.967Z,100696.66
2023-04-26T05:40:13.342Z,100696.66
2023-04-26T05:42:40.340Z,100698.78
2023-04-26T05:45:08.432Z,100697.47
2023-04-26T05:47:34.989Z,100700.69
2023-04-26T05:50:01.515Z,100704.78
2023-04-26T05:52:28.325Z,100703.03
2023-04-26T05:54:54.793Z,100712.78
2023-04-26T05:57:21.455Z,100712.78
2023-04-26T05:59:48.114Z,100705.78
2023-04-26T06:02:14.775Z,100714.66
2023-04-26T06:04:41.597Z,100719.53
2023-04-26T06:07:11.793Z,100723.78
2023-04-26T06:09:38.770Z,100716.78
2023-04-26T06:12:05.519Z,100720.75
2023-04-26T06:14:35.174Z,100727.53
2023-04-26T06:17:06.227Z,100723.16
2023-04-26T06:19:33.181Z,100726.25
2023-04-26T06:21:59.883Z,100724.53
2023-04-26T06:24:27.173Z,100723.41
2023-04-26T06:26:53.653Z,100719.53
2023-04-26T06:29:20.749Z,100722.41
2023-04-26T06:31:48.036Z,100718.72
2023-04-26T06:34:14.656Z,100712.03
2023-04-26T06:36:41.560Z,100718.16
2023-04-26T06:39:08.960Z,100721.09
2023-04-26T06:41:35.575Z,100720.78
2023-04-26T06:44:02.230Z,100725.16
2023-04-26T06:46:31.063Z,100718.03
2023-04-26T06:48:57.626Z,100717.91
2023-04-26T06:51:24.851Z,100720.38
2023-04-26T06:53:52.523Z,100713.41
2023-04-26T06:56:19.217Z,100713.03
2023-04-26T06:59:01.344Z,100706.72
2023-04-26T07:01:29.306Z,100711.91
2023-04-26T07:03:57.558Z,100703.53
2023-04-26T07:06:24.533Z,100706.66
2023-04-26T07:08:51.298Z,100710.03
2023-04-26T07:11:17.891Z,100712.16
2023-04-26T07:13:44.592Z,100704.44
2023-04-26T07:16:11.052Z,100702.97
2023-04-26T07:18:37.476Z,100704.00
2023-04-26T07:21:03.984Z,100704.81
2023-04-26T07:23:30.366Z,100701.91
2023-04-26T07:25:57.769Z,100702.53
2023-04-26T07:28:24.403Z,100703.19
2023-04-26T07:30:50.857Z,100703.19
2023-04-26T07:33:17.338Z,100701.63
2023-04-26T07:35:44.012Z,100706.13
2023-04-26T07:38:10.793Z,100703.38
2023-04-26T07:40:37.318Z,100707.75
2023-04-26T07:43:04.112Z,100712.91
2023-04-26T07:45:30.602Z,100709.25
2023-04-26T07:47:57.159Z,100703.78
2023-04-26T07:50:24.424Z,100701.97
2023-04-26T07:52:51.293Z,100705.53
2023-04-26T07:55:17.988Z,100707.41
2023-04-26T07:57:44.437Z,100707.56
2023-04-26T08:00:12.116Z,100709.16
2023-04-26T08:02:44.707Z,100711.81
2023-04-26T08:05:11.969Z,100716.81
2023-04-26T08:07:38.580Z,100717.56
2023-04-26T08:10:05.404Z,100705.84
2023-04-26T08:12:32.635Z,100703.41
2023-04-26T08:14:59.943Z,100699.16
2023-04-26T08:17:26.744Z,100695.53
2023-04-26T08:19:53.217Z,100698.50
2023-04-26T08:22:22.537Z,100694.97
2023-04-26T08:24:54.979Z,100703.22
2023-04-26T08:27:21.543Z,100706.56
2023-04-26T08:29:48.259Z,100703.69
2023-04-26T08:32:14.674Z,100704.31
2023-04-26T08:34:41.299Z,100698.09
2023-04-26T08:37:07.726Z,100700.44
2023-04-26T08:39:34.145Z,100693.53
2023-04-26T08:42:12.530Z,100698.97
2023-04-26T08:44:38.926Z,100694.16
2023-04-26T08:47:10.617Z,100693.72
2023-04-26T08:49:43.633Z,100686.03
2023-04-26T08:52:14.635Z,100689.47
2023-04-26T08:54:41.067Z,100683.53
2023-04-26T08:57:08.151Z,100669.25
2023-04-26T08:59:36.175Z,100673.66
2023-04-26T09:02:05.638Z,100677.03
2023-04-26T09:04:32.329Z,100674.84
2023-04-26T09:07:02.600Z,100676.91
2023-04-26T09:09:29.708Z,100674.84
2023-04-26T09:11:56.789Z,100675.25
2023-04-26T09:14:23.552Z,100670.97
2023-04-26T09:16:50.018Z,100670.28
2023-04-26T09:19:16.483Z,100672.03
2023-04-26T09:21:46.594Z,100666.44
2023-04-26T09:24:13.264Z,100669.44
2023-04-26T09:26:39.693Z,100662.38
2023-04-26T09:29:12.561Z,100663.88
2023-04-26T09:31:40.061Z,100663.88
2023-04-26T09:34:06.627Z,100663.78
2023-04-26T09:36:33.062Z,100650.22
2023-04-26T09:38:59.726Z,100666.16
2023-04-26T09:41:41.648Z,100662.19
2023-04-26T09:44:20.021Z,100660.28
2023-04-26T09:46:57.195Z,100663.66
2023-04-26T09:49:23.718Z,100657.31
2023-04-26T09:52:00.237Z,100668.47
2023-04-26T09:54:37.667Z,100667.72
2023-04-26T09:57:04.279Z,100671.22
2023-04-26T09:59:40.980Z,100666.53
2023-04-26T10:02:13.537Z,100678.16
2023-04-26T10:04:39.983Z,100672.66
2023-04-26T10:07:07.162Z,100664.78
2023-04-26T10:09:33.704Z,100659.97
2023-04-26T10:12:00.272Z,100655.28
2023-04-26T10:14:26.700Z,100650.03
2023-04-26T10:16:54.694Z,100649.50
2023-04-26T10:19:21.614Z,100647.16
2023-04-26T10:21:48.436Z,100640.13
2023-04-26T10:24:15.021Z,100645.03
2023-04-26T10:26:49.442Z,100648.06
2023-04-26T10:29:15.935Z,100649.28
2023-04-26T10:32:18.072Z,100645.41
2023-04-26T10:34:44.568Z,100651.78
2023-04-26T10:37:11.253Z,100658.38
2023-04-26T10:39:38.591Z,100646.28
2023-04-26T10:42:24.768Z,100638.88
2023-04-26T10:44:55.720Z,100643.50
2023-04-26T10:47:28.197Z,100633.34
2023-04-26T10:50:03.636Z,100634.34
2023-04-26T10:52:31.792Z,100631.75
2023-04-26T10:54:58.667Z,100620.72
2023-04-26T10:57:45.856Z,100629.09
2023-04-26T11:00:16.507Z,100622.78
2023-04-26T11:02:52.830Z,100613.22
2023-04-26T11:05:34.888Z,100611.97
2023-04-26T11:08:27.559Z,100612.59
2023-04-26T11:10:57.824Z,100612.97
2023-04-26T11:13:24.196Z,100593.56
2023-04-26T11:15:54.010Z,100584.00
2023-04-26T11:18:23.783Z,100594.19
2023-04-26T11:20:50.218Z,100590.47
2023-04-26T11:23:17.843Z,100586.50
2023-04-26T11:25:44.294Z,100586.19
2023-04-26T11:28:10.855Z,100576.47
2023-04-26T11:30:37.256Z,100570.19
2023-04-26T11:33:06.631Z,100571.19
2023-04-26T11:35:33.740Z,100565.09
2023-04-26T11:38:03.366Z,100565.13
2023-04-26T11:40:32.796Z,100559.75
2023-04-26T11:43:00.187Z,100553.78
2023-04-26T11:45:26.879Z,100551.72
2023-04-26T11:47:53.433Z,100552.81
2023-04-26T11:50:20.864Z,100552.44
2023-04-26T11:52:47.290Z,100545.97
2023-04-26T11:55:14.431Z,100546.13
2023-04-26T11:57:40.933Z,100557.31
2023-04-26T12:00:10.369Z,100552.78
2023-04-26T12:02:36.993Z,100549.56
2023-04-26T12:05:04.288Z,100548.75
2023-04-26T12:07:40.352Z,100545.84
2023-04-26T12:10:16.673Z,100536.44
2023-04-26T12:12:50.955Z,100546.22
2023-04-26T12:15:18.031Z,100550.91
2023-04-26T12:18:06.238Z,100542.97
2023-04-26T12:20:34.953Z,100540.38
2023-04-26T12:23:08.217Z,100545.72
2023-04-26T12:25:35.078Z,100542.97
2023-04-26T12:28:01.771Z,100546.50
2023-04-26T12:30:28.484Z,100540.38
2023-04-26T12:33:15.683Z,100540.69
2023-04-26T12:35:43.379Z,100542.81
2023-04-26T12:38:10.069Z,100526.09
2023-04-26T12:40:36.817Z,100540.72
2023-04-26T12:43:03.444Z,100532.09
2023-04-26T12:45:29.987Z,100528.69
2023-04-26T12:47:56.650Z,100530.94
2023-04-26T12:50:23.226Z,100530.31
2023-04-26T12:52:49.718Z,100535.00
2023-04-26T12:55:16.274Z,100529.66
2023-04-26T12:57:43.199Z,100539.22
2023-04-26T13:00:10.687Z,100537.94
2023-04-26T13:02:37.281Z,100538.91
2023-04-26T13:05:05.035Z,100536.47
2023-04-26T13:07:31.880Z,100534.06
2023-04-26T13:09:58.778Z,100536.16
2023-04-26T13:12:25.226Z,100535.34
2023-04-26T13:14:51.783Z,100535.50
2023-04-26T13:17:18.256Z,100533.41
2023-04-26T13:19:44.650Z,100535.00
2023-04-26T13:22:11.442Z,100530.94
2023-04-26T13:24:37.899Z,100529.84
2023-04-26T13:27:04.819Z,100536.78
2023-04-26T13:29:34.021Z,100529.50
2023-04-26T13:32:00.703Z,100527.56
2023-04-26T13:34:27.251Z,100529.97
2023-04-26T13:36:53.811Z,100531.13
2023-04-26T13:39:20.503Z,100523.97
2023-04-26T13:41:46.901Z,100520.88
2023-04-26T13:44:14.214Z,100527.06
2023-04-26T13:46:41.079Z,100528.81
2023-04-26T13:49:08.261Z,100519.25
2023-04-26T13:51:34.875Z,100505.03
2023-04-26T13:54:01.366Z,100524.94
2023-04-26T13:56:27.804Z,100527.22
2023-04-26T13:58:54.665Z,100527.22
2023-04-26T14:01:21.164Z,100521.22
2023-04-26T14:03:47.845Z,100523.50
2023-04-26T14:06:14.321Z,100524.47
2023-04-26T14:08:40.729Z,100515.22
2023-04-26T14:11:07.943Z,100522.53
2023-04-26T14:13:34.372Z,100522.53
2023-04-26T14:16:00.981Z,100524.78
2023-04-26T14:18:27.501Z,100518.63
2023-04-26T14:20:53.929Z,100512.78
2023-04-26T14:23:20.434Z,100512.97
2023-04-26T14:25:46.843Z,100516.03
2023-04-26T14:28:16.493Z,100512.81
2023-04-26T14:30:43.141Z,100505.34
2023-04-26T14:33:09.650Z,100514.09
2023-04-26T14:35:36.182Z,100511.34
2023-04-26T14:38:02.737Z,100512.47
2023-04-26T14:40:29.413Z,100512.31
2023-04-26T14:42:56.319Z,100511.03
2023-04-26T14:45:30.462Z,100503.72
2023-04-26T14:48:03.929Z,100500.16
2023-04-26T14:50:30.467Z,100493.50
2023-04-26T14:52:56.938Z,100499.31
2023-04-26T14:55:23.509Z,100498.81
2023-04-26T14:57:50.042Z,100503.06
2023-04-26T15:00:17.012Z,100504.00
2023-04-26T15:02:43.899Z,100500.44
2023-04-26T15:05:11.192Z,100494.28
2023-04-26T15:07:38.096Z,100493.47
2023-04-26T15:10:05.602Z,100487.16
2023-04-26T15:12:32.129Z,100487.31
2023-04-26T15:14:58.566Z,100483.56
2023-04-26T15:17:25.066Z,100477.28
2023-04-26T15:19:51.579Z,100473.69
2023-04-26T15:22:18.028Z,100482.63
2023-04-26T15:24:45.039Z,100469.34
2023-04-26T15:27:12.693Z,100469.81
2023-04-26T15:29:39.181Z,100460.09
2023-04-26T15:32:05.804Z,100472.91
2023-04-26T15:34:37.420Z,100469.84
2023-04-26T15:37:04.645Z,100461.25
2023-04-26T15:39:31.186Z,100467.25
2023-04-26T15:41:57.919Z,100474.72
2023-04-26T15:44:24.319Z,100469.19
2023-04-26T15:46:51.242Z,100471.13
2023-04-26T15:49:17.619Z,100468.06
2023-04-26T15:51:44.077Z,100463.19
2023-04-26T15:54:10.546Z,100463.66
2023-04-26T15:56:37.066Z,100464.16
2023-04-26T15:59:03.486Z,100460.91
2023-04-26T16:01:29.951Z,100463.00
2023-04-26T16:03:56.674Z,100460.09
2023-04-26T16:06:23.530Z,100459.59
2023-04-26T16:08:50.009Z,100457.34
2023-04-26T16:11:16.583Z,100448.13
2023-04-26T16:13:44.493Z,100448.91
2023-04-26T16:16:11.480Z,100451.50
2023-04-26T16:18:40.964Z,100444.03
2023-04-26T16:21:09.405Z,100447.13
2023-04-26T16:23:36.152Z,100450.53
2023-04-26T16:26:02.818Z,100448.44
2023-04-26T16:28:29.273Z,100447.28
2023-04-26T16:30:56.011Z,100442.41
2023-04-26T16:33:23.379Z,100445.66
2023-04-26T16:35:51.999Z,100448.25
2023-04-26T16:38:19.060Z,100449.03
2023-04-26T16:40:52.685Z,100441.13
2023-04-26T16:43:19.360Z,100450.69
2023-04-26T16:45:46.263Z,100453.44
2023-04-26T16:48:12.772Z,100445.34
2023-04-26T16:50:39.270Z,100450.03
2023-04-26T16:53:05.760Z,100453.31
2023-04-26T16:55:32.252Z,100452.16
2023-04-26T16:57:58.717Z,100448.28
2023-04-26T17:00:25.303Z,100448.28
2023-04-26T17:02:52.094Z,100455.09
2023-04-26T17:05:18.743Z,100456.88
2023-04-26T17:07:45.123Z,100457.53
2023-04-26T17:10:12.107Z,100459.28
2023-04-26T17:12:38.654Z,100465.47
2023-04-26T17:15:05.458Z,100463.34
2023-04-26T17:17:31.980Z,100464.00
2023-04-26T17:19:58.520Z,100468.22
2023-04-26T17:22:25.024Z,100468.72
2023-04-26T17:24:51.567Z,100465.47
2023-04-26T17:27:18.559Z,100467.41
2023-04-26T17:29:45.125Z,100474.72
2023-04-26T17:32:11.590Z,100467.41
2023-04-26T17:34:38.824Z,100471.44
2023-04-26T17:37:05.361Z,100468.03
2023-04-26T17:39:31.891Z,100473.03
2023-04-26T17:41:58.388Z,100477.25
2023-04-26T17:44:24.865Z,100478.25
2023-04-26T17:46:51.306Z,100470.66
2023-04-26T17:49:17.850Z,100475.19
2023-04-26T17:51:44.446Z,100475.81
2023-04-26T17:54:10.997Z,100482.78
2023-04-26T17:56:37.477Z,100478.25
2023-04-26T17:59:03.961Z,100477.75
2023-04-26T18:01:30.631Z,100473.84
2023-04-26T18:03:57.443Z,100475.97
2023-04-26T18:06:24.087Z,100478.72
2023-04-26T18:08:50.667Z,100480.03
2023-04-26T18:11:18.770Z,100480.50
2023-04-26T18:13:47.868Z,100488.59
2023-04-26T18:16:16.890Z,100488.44
2023-04-26T18:18:43.701Z,100495.56
2023-04-26T18:21:10.760Z,100493.94
2023-04-26T18:23:37.382Z,100495.56
2023-04-26T18:26:03.907Z,100492.47
2023-04-26T18:28:30.996Z,100500.91
2023-04-26T18:30:57.905Z,100503.00
2023-04-26T18:33:24.673Z,100504.13
2023-04-26T18:35:51.322Z,100508.66
2023-04-26T18:38:17.853Z,100507.22
2023-04-26T18:40:44.748Z,100508.84
2023-04-26T18:43:11.517Z,100504.16
2023-04-26T18:45:38.099Z,100512.72
2023-04-26T18:48:04.965Z,100505.25
2023-04-26T18:50:31.496Z,100519.53
2023-04-26T18:52:58.264Z,100525.22
2023-04-26T18:55:26.058Z,100511.41
2023-04-26T18:57:52.605Z,100517.88
2023-04-26T19:00:19.265Z,100517.25
2023-04-26T19:02:46.237Z,100512.72
2023-04-26T19:05:13.197Z,100522.41
2023-04-26T19:07:40.774Z,100526.31
2023-04-26T19:10:07.646Z,100522.09
2023-04-26T19:12:34.174Z,100529.53
2023-04-26T19:15:00.910Z,100532.13
2023-04-26T19:17:29.527Z,100538.72
2023-04-26T19:19:56.227Z,100543.75
2023-04-26T19:22:22.993Z,100543.75
2023-04-26T19:24:50.125Z,100539.56
2023-04-26T19:27:16.971Z,100542.16
2023-04-26T19:29:43.634Z,100547.31
2023-04-26T19:32:10.324Z,100553.16
2023-04-26T19:34:38.882Z,100550.59
2023-04-26T19:37:05.416Z,100553.50
2023-04-26T19:39:32.037Z,100561.13
2023-04-26T19:42:01.263Z,100567.75
2023-04-26T19:44:27.771Z,100567.13
2023-04-26T19:46:54.328Z,100573.94
2023-04-26T19:49:21.910Z,100572.66
2023-04-26T19:51:48.470Z,100567.28
2023-04-26T19:54:16.716Z,100574.63
2023-04-26T19:56:43.176Z,100569.75
2023-04-26T19:59:09.697Z,100566.47
2023-04-26T20:01:36.583Z,100562.47
2023-04-26T20:04:03.418Z,100569.09
2023-04-26T20:06:30.100Z,100564.56
2023-04-26T20:08:56.665Z,100568.44
2023-04-26T20:11:23.840Z,100564.56
2023-04-26T20:13:50.407Z,100570.06
2023-04-26T20:16:17.130Z,100567.66
2023-04-26T20:18:43.766Z,100567.19
2023-04-26T20:21:10.367Z,100572.19
2023-04-26T20:23:37.042Z,100577.88
2023-04-26T20:26:03.884Z,100572.03
2023-04-26T20:28:30.501Z,100570.25
2023-04-26T20:30:57.037Z,100565.53
2023-04-26T20:33:23.596Z,100577.19
2023-04-26T20:35:50.122Z,100567.78
2023-04-26T20:38:16.701Z,100563.25
2023-04-26T20:40:43.201Z,100562.59
2023-04-26T20:43:09.747Z,100562.13
2023-04-26T20:45:37.523Z,100569.75
2023-04-26T20:48:04.197Z,100574.25
2023-04-26T20:50:31.121Z,100563.88
2023-04-26T20:52:57.721Z,100565.81
2023-04-26T20:55:24.289Z,100571.31
2023-04-26T20:57:50.968Z,100572.28
2023-04-26T21:00:17.628Z,100566.59
2023-04-26T21:02:44.228Z,100570.50
2023-04-26T21:05:10.924Z,100581.03
2023-04-26T21:07:37.384Z,100569.00
2023-04-26T21:10:04.190Z,100574.53
2023-04-26T21:12:30.865Z,100577.78
2023-04-26T21:14:57.394Z,100576.16
2023-04-26T21:17:23.885Z,100578.41
2023-04-26T21:19:50.940Z,100578.13
2023-04-26T21:22:17.421Z,100579.41
2023-04-26T21:24:43.916Z,100580.19
2023-04-26T21:27:10.696Z,100582.72
2023-04-26T21:29:37.302Z,100589.03
2023-04-26T21:32:03.945Z,100581.94
2023-04-26T21:34:30.859Z,100580.69
2023-04-26T21:36:57.368Z,100586.66
2023-04-26T21:39:23.920Z,100588.88
2023-04-26T21:41:50.373Z,100595.81
2023-04-26T21:44:16.820Z,100594.66
2023-04-26T21:46:43.275Z,100587.56
2023-04-26T21:49:10.444Z,100595.56
2023-04-26T21:51:37.395Z,100593.13
2023-04-26T21:54:03.820Z,100585.16
2023-04-26T21:56:30.426Z,100596.31
2023-04-26T21:58:56.833Z,100595.50
2023-04-26T22:01:23.328Z,100603.94
2023-04-26T22:03:50.020Z,100602.06
2023-04-26T22:06:16.621Z,100598.44
2023-04-26T22:08:43.061Z,100597.81
2023-04-26T22:11:09.522Z,100596.50
2023-04-26T22:13:35.968Z,100599.53
2023-04-26T22:16:02.516Z,100606.19
2023-04-26T22:18:29.367Z,100604.97
2023-04-26T22:20:56.065Z,100605.88
2023-04-26T22:23:22.594Z,100602.31
2023-04-26T22:25:49.123Z,100603.31
2023-04-26T22:28:15.642Z,100611.56
2023-04-26T22:30:42.132Z,100609.44
2023-04-26T22:33:09.936Z,100612.69
2023-04-26T22:35:36.441Z,100612.59
2023-04-26T22:38:02.921Z,100603.53
2023-04-26T22:40:29.442Z,100612.69
2023-04-26T22:42:55.968Z,100612.31
2023-04-26T22:45:22.818Z,100616.34
2023-04-26T22:47:49.439Z,100620.38
2023-04-26T22:50:16.228Z,100619.25
2023-04-26T22:52:42.653Z,100620.38
2023-04-26T22:55:09.371Z,100624.41
2023-04-26T22:57:35.800Z,100614.88
2023-04-26T23:00:02.613Z,100618.09
2023-04-26T23:02:29.179Z,100618.91
2023-04-26T23:04:55.869Z,100618.53
2023-04-26T23:07:22.357Z,100621.81
2023-04-26T23:09:48.807Z,100624.84
2023-04-26T23:12:21.161Z,100631.50
2023-04-26T23:14:48.585Z,100634.94
2023-04-26T23:17:15.099Z,100629.63
2023-04-26T23:19:42.267Z,100632.00
2023-04-26T23:22:08.745Z,100628.94
2023-04-26T23:24:35.249Z,100636.88
2023-04-26T23:27:02.548Z,100635.38
2023-04-26T23:29:28.935Z,100636.19
2023-04-26T23:31:55.512Z,100637.50
2023-04-26T23:34:22.027Z,100633.47
2023-04-26T23:36:48.433Z,100643.75
2023-04-26T23:39:15.452Z,100643.13
2023-04-26T23:41:42.134Z,100637.25
2023-04-26T23:44:08.658Z,100631.13
2023-04-26T23:46:35.129Z,100637.88
2023-04-26T23:49:01.569Z,100631.28
2023-04-26T23:51:28.040Z,100635.97
2023-04-26T23:53:54.494Z,100627.06
2023-04-26T23:56:21.013Z,100639.84
2023-04-26T23:58:47.470Z,100636.75
